createdAt,value
2019-01-23T00:02:37.539Z,14.00
2019-01-23T00:05:26.461Z,14.03
2019-01-23T00:08:15.324Z,13.77
2019-01-23T00:11:04.181Z,15.33
2019-01-23T00:13:53.016Z,13.23
2019-01-23T00:16:41.876Z,15.03
2019-01-23T00:22:59.272Z,14.03
2019-01-23T00:25:48.758Z,14.47
2019-01-23T00:28:42.325Z,13.90
2019-01-23T00:31:28.114Z,14.30
2019-01-23T00:34:17.000Z,15.77
2019-01-23T00:37:05.849Z,14.47
2019-01-23T00:39:54.749Z,15.37
2019-01-23T00:42:43.692Z,15.50
2019-01-23T00:45:23.548Z,13.80
2019-01-23T00:48:12.476Z,15.23
2019-01-23T00:51:01.339Z,12.93
2019-01-23T00:53:50.290Z,15.50
2019-01-23T00:56:39.075Z,15.47
2019-01-23T00:59:27.926Z,15.47
2019-01-23T01:02:16.801Z,14.03
2019-01-23T01:05:06.357Z,14.73
2019-01-23T01:07:55.240Z,15.43
2019-01-23T01:10:44.238Z,16.67
2019-01-23T01:13:33.058Z,14.40
2019-01-23T01:16:21.987Z,15.87
2019-01-23T01:19:10.794Z,15.53
2019-01-23T01:21:59.696Z,14.93
2019-01-23T01:24:48.549Z,13.73
2019-01-23T01:27:37.375Z,13.73
2019-01-23T01:30:26.357Z,13.67
2019-01-23T01:33:15.157Z,14.30
2019-01-23T01:36:04.160Z,14.07
2019-01-23T01:38:53.201Z,14.40
2019-01-23T01:41:42.062Z,12.90
2019-01-23T01:44:21.878Z,12.77
2019-01-23T01:47:10.795Z,13.30
2019-01-23T01:49:59.656Z,12.13
2019-01-23T01:52:48.667Z,14.23
2019-01-23T01:55:37.565Z,12.83
2019-01-23T01:58:26.414Z,12.63
2019-01-23T02:01:15.232Z,13.73
2019-01-23T02:04:04.228Z,13.03
2019-01-23T02:06:53.099Z,12.23
2019-01-23T02:12:49.962Z,12.83
2019-01-23T02:15:38.735Z,12.67
2019-01-23T02:18:27.678Z,12.27
2019-01-23T02:21:16.549Z,12.97
2019-01-23T02:24:05.458Z,12.87
2019-01-23T02:26:54.291Z,11.77
2019-01-23T02:29:43.130Z,11.93
2019-01-23T02:32:32.038Z,11.30
2019-01-23T02:35:21.021Z,12.33
2019-01-23T02:38:09.823Z,12.00
2019-01-23T02:40:58.813Z,11.87
2019-01-23T02:43:47.606Z,11.57
2019-01-23T02:46:28.916Z,13.80
2019-01-23T02:49:17.826Z,12.83
2019-01-23T02:52:06.749Z,13.40
2019-01-23T02:54:55.584Z,12.53
2019-01-23T02:57:44.614Z,11.57
2019-01-23T03:00:33.511Z,11.95
2019-01-23T03:03:22.335Z,11.70
2019-01-23T03:09:20.622Z,11.80
2019-01-23T03:12:09.511Z,11.97
2019-01-23T03:15:19.031Z,11.97
2019-01-23T03:18:07.911Z,12.00
2019-01-23T03:20:56.799Z,11.33
2019-01-23T03:23:45.816Z,11.30
2019-01-23T03:26:34.610Z,12.63
2019-01-23T03:29:24.691Z,11.27
2019-01-23T03:32:14.031Z,13.00
2019-01-23T03:35:02.908Z,11.97
2019-01-23T03:37:51.814Z,12.00
2019-01-23T03:40:40.801Z,12.33
2019-01-23T03:43:48.928Z,12.77
2019-01-23T03:46:28.858Z,12.57
2019-01-23T03:49:17.739Z,12.03
2019-01-23T03:52:06.738Z,10.83
2019-01-23T03:54:36.233Z,12.20
2019-01-23T03:57:25.122Z,12.87
2019-01-23T04:00:34.872Z,12.47
2019-01-23T04:03:23.690Z,11.27
2019-01-23T04:06:12.593Z,12.80
2019-01-23T04:09:01.467Z,12.47
2019-01-23T04:11:50.538Z,12.53
2019-01-23T04:14:39.387Z,12.83
2019-01-23T04:17:28.246Z,13.50
2019-01-23T04:20:38.001Z,12.77
2019-01-23T04:23:26.847Z,11.40
2019-01-23T04:26:15.694Z,12.73
2019-01-23T04:29:04.800Z,12.63
2019-01-23T04:31:53.647Z,12.97
2019-01-23T04:34:42.540Z,12.60
2019-01-23T04:37:31.409Z,14.03
2019-01-23T04:40:20.328Z,12.53
2019-01-23T04:43:09.175Z,13.90
2019-01-23T04:45:58.011Z,12.77
2019-01-23T04:48:39.310Z,12.20
2019-01-23T04:51:47.238Z,12.43
2019-01-23T04:54:36.139Z,11.13
2019-01-23T04:57:24.980Z,11.53
2019-01-23T05:03:10.108Z,12.03
2019-01-23T05:05:58.945Z,14.10
2019-01-23T05:08:28.456Z,12.83
2019-01-23T05:11:17.315Z,13.07
2019-01-23T05:14:06.241Z,12.87
2019-01-23T05:16:55.057Z,12.30
2019-01-23T05:19:43.910Z,13.43
2019-01-23T05:22:32.715Z,17.53
2019-01-23T05:25:21.631Z,18.50
2019-01-23T05:28:10.488Z,13.50
2019-01-23T05:30:59.290Z,15.37
2019-01-23T05:33:48.266Z,14.60
2019-01-23T05:36:37.070Z,13.23
2019-01-23T05:39:25.922Z,13.62
2019-01-23T05:42:14.855Z,12.80
2019-01-23T05:47:52.215Z,13.53
2019-01-23T05:50:41.161Z,12.40
2019-01-23T05:53:30.021Z,12.00
2019-01-23T05:56:18.846Z,13.30
2019-01-23T05:59:07.640Z,14.90
2019-01-23T06:01:56.488Z,15.07
2019-01-23T06:04:38.212Z,15.30
2019-01-23T06:07:27.054Z,12.00
2019-01-23T06:10:15.998Z,12.65
2019-01-23T06:13:04.885Z,11.80
2019-01-23T06:15:53.749Z,13.47
2019-01-23T06:18:42.587Z,14.00
2019-01-23T06:21:31.452Z,14.13
2019-01-23T06:24:20.294Z,14.15
2019-01-23T06:26:49.808Z,14.23
2019-01-23T06:29:38.707Z,15.53
2019-01-23T06:32:27.552Z,13.80
2019-01-23T06:35:16.965Z,13.27
2019-01-23T06:38:05.886Z,13.57
2019-01-23T06:40:54.795Z,14.20
2019-01-23T06:43:43.678Z,13.30
2019-01-23T06:46:32.507Z,14.47
2019-01-23T06:49:21.358Z,14.77
2019-01-23T06:52:10.256Z,16.87
2019-01-23T06:54:59.077Z,14.23
2019-01-23T06:57:48.010Z,13.72
2019-01-23T07:00:30.158Z,14.13
2019-01-23T07:03:19.019Z,13.27
2019-01-23T07:06:07.823Z,13.37
2019-01-23T07:08:56.665Z,13.10
2019-01-23T07:11:45.528Z,13.07
2019-01-23T07:14:34.409Z,13.00
2019-01-23T07:17:23.293Z,15.13
2019-01-23T07:20:33.056Z,14.13
2019-01-23T07:26:21.104Z,13.37
2019-01-23T07:29:09.997Z,13.63
2019-01-23T07:31:58.847Z,14.53
2019-01-23T07:34:47.711Z,14.17
2019-01-23T07:37:36.537Z,14.70
2019-01-23T07:40:25.424Z,13.90
2019-01-23T07:43:14.261Z,13.50
2019-01-23T07:46:03.097Z,12.83
2019-01-23T07:48:32.613Z,13.05
2019-01-23T07:51:02.151Z,12.73
2019-01-23T07:53:51.333Z,12.73
2019-01-23T07:56:41.635Z,12.68
2019-01-23T07:59:23.021Z,14.20
2019-01-23T08:02:11.923Z,12.47
2019-01-23T08:05:00.774Z,12.80
2019-01-23T08:07:49.856Z,13.05
2019-01-23T08:10:38.691Z,13.03
2019-01-23T08:13:27.688Z,12.78
2019-01-23T08:16:16.510Z,12.53
2019-01-23T08:19:05.431Z,13.70
2019-01-23T08:21:54.207Z,13.23
2019-01-23T08:24:43.064Z,12.40
2019-01-23T08:27:31.987Z,13.65
2019-01-23T08:30:40.975Z,13.98
2019-01-23T08:33:30.768Z,13.53
2019-01-23T08:36:19.698Z,13.03
2019-01-23T08:39:08.679Z,13.32
2019-01-23T08:41:57.570Z,13.40
2019-01-23T08:44:46.358Z,12.77
2019-01-23T08:47:35.189Z,12.63
2019-01-23T08:50:44.908Z,14.63
2019-01-23T08:53:33.831Z,13.07
2019-01-23T08:56:22.655Z,13.77
2019-01-23T08:59:11.520Z,13.80
2019-01-23T09:02:00.420Z,12.63
2019-01-23T09:04:49.275Z,12.27
2019-01-23T09:07:38.170Z,12.67
2019-01-23T09:10:47.893Z,12.60
2019-01-23T09:13:36.737Z,13.07
2019-01-23T09:16:25.570Z,13.53
2019-01-23T09:19:14.470Z,11.73
2019-01-23T09:22:03.271Z,12.17
2019-01-23T09:24:52.143Z,12.10
2019-01-23T09:27:40.994Z,12.93
2019-01-23T09:30:52.697Z,12.03
2019-01-23T09:34:20.118Z,12.20
2019-01-23T09:37:29.937Z,12.00
2019-01-23T09:40:39.688Z,12.53
2019-01-23T09:44:07.218Z,12.10
2019-01-23T09:47:16.953Z,11.77
2019-01-23T09:50:44.541Z,12.77
2019-01-23T09:53:54.835Z,11.47
2019-01-23T09:57:05.757Z,10.97
2019-01-23T09:59:47.067Z,12.30
2019-01-23T10:02:16.542Z,12.20
2019-01-23T10:05:26.316Z,12.40
2019-01-23T10:08:15.153Z,11.77
2019-01-23T10:11:04.026Z,12.23
2019-01-23T10:13:52.909Z,11.27
2019-01-23T10:16:41.756Z,10.77
2019-01-23T10:19:30.635Z,11.57
2019-01-23T10:22:19.573Z,11.57
2019-01-23T10:25:08.492Z,11.67
2019-01-23T10:27:57.326Z,11.53
2019-01-23T10:30:46.253Z,12.13
2019-01-23T10:33:35.152Z,10.80
2019-01-23T10:36:24.053Z,13.93
2019-01-23T10:39:12.965Z,14.07
2019-01-23T10:42:01.981Z,12.30
2019-01-23T10:44:50.830Z,12.60
2019-01-23T10:47:39.678Z,12.03
2019-01-23T10:50:21.229Z,11.90
2019-01-23T10:53:10.277Z,10.63
2019-01-23T10:55:39.924Z,11.13
2019-01-23T10:58:28.821Z,13.53
2019-01-23T11:01:17.742Z,12.00
2019-01-23T11:04:06.691Z,11.13
2019-01-23T11:06:55.576Z,10.67
2019-01-23T11:09:44.385Z,10.87
2019-01-23T11:12:33.300Z,10.80
2019-01-23T11:15:22.273Z,11.13
2019-01-23T11:18:11.129Z,11.97
2019-01-23T11:21:00.027Z,11.17
2019-01-23T11:23:48.818Z,12.63
2019-01-23T11:26:37.811Z,11.83
2019-01-23T11:29:26.616Z,11.03
2019-01-23T11:32:15.561Z,11.10
2019-01-23T11:38:20.222Z,10.00
2019-01-23T11:41:09.118Z,10.67
2019-01-23T11:43:58.032Z,12.07
2019-01-23T11:46:40.150Z,11.60
2019-01-23T11:49:29.864Z,10.07
2019-01-23T11:52:38.068Z,11.80
2019-01-23T11:55:30.548Z,11.97
2019-01-23T12:01:57.330Z,10.57
2019-01-23T12:05:19.100Z,11.20
2019-01-23T12:07:57.677Z,12.30
2019-01-23T12:10:46.584Z,12.03
2019-01-23T12:13:35.575Z,11.10
2019-01-23T12:16:24.434Z,11.43
2019-01-23T12:19:13.334Z,10.93
2019-01-23T12:22:02.167Z,10.57
2019-01-23T12:24:51.028Z,10.50
2019-01-23T12:27:39.962Z,10.90
2019-01-23T12:30:49.742Z,9.87
2019-01-23T12:33:38.684Z,10.63
2019-01-23T12:36:27.533Z,11.67
2019-01-23T12:39:16.474Z,11.03
2019-01-23T12:42:05.427Z,12.00
2019-01-23T12:44:54.432Z,10.53
2019-01-23T12:47:43.624Z,10.20
2019-01-23T12:50:32.882Z,11.10
2019-01-23T12:53:14.474Z,10.20
2019-01-23T12:56:03.379Z,9.60
2019-01-23T12:58:52.307Z,11.00
2019-01-23T13:01:42.106Z,10.00
2019-01-23T13:04:31.829Z,11.63
2019-01-23T13:07:20.643Z,11.27
2019-01-23T13:10:30.420Z,11.83
2019-01-23T13:13:19.362Z,11.00
2019-01-23T13:16:08.227Z,11.17
2019-01-23T13:18:57.115Z,10.13
2019-01-23T13:21:45.950Z,10.97
2019-01-23T13:24:34.742Z,9.57
2019-01-23T13:27:23.739Z,9.90
2019-01-23T13:30:33.478Z,9.67
2019-01-23T13:33:34.575Z,9.97
2019-01-23T13:36:13.019Z,10.20
2019-01-23T13:39:01.923Z,12.30
2019-01-23T13:41:50.789Z,10.27
2019-01-23T13:44:39.616Z,10.87
2019-01-23T13:47:28.542Z,10.43
2019-01-23T13:50:11.349Z,10.50
2019-01-23T13:53:00.278Z,10.47
2019-01-23T13:55:49.145Z,9.77
2019-01-23T13:58:41.879Z,10.67
2019-01-23T14:01:28.603Z,11.17
2019-01-23T14:04:17.520Z,9.67
2019-01-23T14:07:06.434Z,10.47
2019-01-23T14:09:55.257Z,10.27
2019-01-23T14:12:44.248Z,10.07
2019-01-23T14:15:53.981Z,10.40
2019-01-23T14:18:42.813Z,11.13
2019-01-23T14:21:31.622Z,11.70
2019-01-23T14:24:20.482Z,10.93
2019-01-23T14:27:09.301Z,10.13
2019-01-23T14:29:58.229Z,10.63
2019-01-23T14:32:47.103Z,9.23
2019-01-23T14:38:51.867Z,11.30
2019-01-23T14:41:40.716Z,11.47
2019-01-23T14:44:29.562Z,9.07
2019-01-23T14:47:18.459Z,9.43
2019-01-23T14:50:28.217Z,9.90
2019-01-23T14:53:17.114Z,9.07
2019-01-23T14:56:05.965Z,8.20
2019-01-23T14:58:54.821Z,9.30
2019-01-23T15:01:43.708Z,10.63
2019-01-23T15:04:32.609Z,9.90
2019-01-23T15:07:21.490Z,10.20
2019-01-23T15:10:31.315Z,9.37
2019-01-23T15:13:20.217Z,9.07
2019-01-23T15:16:09.137Z,10.83
2019-01-23T15:18:57.962Z,9.83
2019-01-23T15:21:46.820Z,10.33
2019-01-23T15:24:35.626Z,10.27
2019-01-23T15:27:24.472Z,10.60
2019-01-23T15:30:34.297Z,10.03
2019-01-23T15:36:22.311Z,9.93
2019-01-23T15:39:11.124Z,9.37
2019-01-23T15:42:00.016Z,10.20
2019-01-23T15:44:48.826Z,9.60
2019-01-23T15:47:37.729Z,9.93
2019-01-23T15:50:22.682Z,9.20
2019-01-23T15:53:11.542Z,8.93
2019-01-23T15:56:00.438Z,9.03
2019-01-23T15:58:49.274Z,9.37
2019-01-23T16:01:38.201Z,8.93
2019-01-23T16:04:27.058Z,9.77
2019-01-23T16:07:15.915Z,9.83
2019-01-23T16:10:25.677Z,10.70
2019-01-23T16:13:14.493Z,9.57
2019-01-23T16:16:03.406Z,9.37
2019-01-23T16:18:52.259Z,9.57
2019-01-23T16:21:45.593Z,8.43
2019-01-23T16:24:31.734Z,9.13
2019-01-23T16:27:20.610Z,10.63
2019-01-23T16:30:30.379Z,10.80
2019-01-23T16:33:19.292Z,9.53
2019-01-23T16:36:08.222Z,9.10
2019-01-23T16:38:57.053Z,9.13
2019-01-23T16:41:45.859Z,9.93
2019-01-23T16:44:34.750Z,9.57
2019-01-23T16:47:24.002Z,9.87
2019-01-23T16:50:35.052Z,8.93
2019-01-23T16:53:16.371Z,9.77
2019-01-23T16:56:05.392Z,9.47
2019-01-23T16:58:54.247Z,9.03
2019-01-23T17:01:43.121Z,9.93
2019-01-23T17:04:31.997Z,9.20
2019-01-23T17:07:20.788Z,9.67
2019-01-23T17:10:29.149Z,9.17
2019-01-23T17:13:18.113Z,8.87
2019-01-23T17:16:07.040Z,7.77
2019-01-23T17:18:55.917Z,9.73
2019-01-23T17:21:44.774Z,8.60
2019-01-23T17:24:33.692Z,9.57
2019-01-23T17:27:41.837Z,9.00
2019-01-23T17:30:30.673Z,9.27
2019-01-23T17:33:19.624Z,8.90
2019-01-23T17:36:08.549Z,10.37
2019-01-23T17:38:57.480Z,10.47
2019-01-23T17:41:46.394Z,9.90
2019-01-23T17:44:35.207Z,9.37
2019-01-23T17:53:28.765Z,8.70
2019-01-23T17:56:17.590Z,10.07
2019-01-23T17:59:06.905Z,9.77
2019-01-23T18:01:55.928Z,9.27
2019-01-23T18:04:44.766Z,10.90
2019-01-23T18:07:33.646Z,9.37
2019-01-23T18:10:22.624Z,10.30
2019-01-23T18:13:11.520Z,11.10
2019-01-23T18:16:21.274Z,10.60
2019-01-23T18:19:10.096Z,9.43
2019-01-23T18:21:58.943Z,9.83
2019-01-23T18:24:47.828Z,9.30
2019-01-23T18:27:36.844Z,9.57
2019-01-23T18:30:46.576Z,9.07
2019-01-23T18:33:56.317Z,10.20
2019-01-23T18:37:06.072Z,9.73
2019-01-23T18:40:33.618Z,9.87
2019-01-23T18:44:01.175Z,10.50
2019-01-23T18:47:10.995Z,9.77
2019-01-23T18:50:20.796Z,10.27
2019-01-23T18:53:10.512Z,9.70
2019-01-23T18:55:53.213Z,10.57
2019-01-23T18:58:42.078Z,10.40
2019-01-23T19:01:31.050Z,10.03
2019-01-23T19:04:19.961Z,8.90
2019-01-23T19:07:08.982Z,9.03
2019-01-23T19:09:57.830Z,9.47
2019-01-23T19:12:46.664Z,10.60
2019-01-23T19:15:35.652Z,10.37
2019-01-23T19:18:24.511Z,9.47
2019-01-23T19:21:13.522Z,9.50
2019-01-23T19:24:02.366Z,10.53
2019-01-23T19:26:51.214Z,9.23
2019-01-23T19:29:40.156Z,9.03
2019-01-23T19:32:29.138Z,9.10
2019-01-23T19:35:18.006Z,10.13
2019-01-23T19:38:06.973Z,9.30
2019-01-23T19:40:55.811Z,9.73
2019-01-23T19:43:44.728Z,10.77
2019-01-23T19:46:33.620Z,9.30
2019-01-23T19:49:22.553Z,9.33
2019-01-23T19:52:04.207Z,10.00
2019-01-23T19:54:53.027Z,8.93
2019-01-23T19:57:41.873Z,8.90
2019-01-23T20:00:30.779Z,9.57
2019-01-23T20:03:20.645Z,9.90
2019-01-23T20:06:10.351Z,8.87
2019-01-23T20:08:59.165Z,9.60
2019-01-23T20:11:48.093Z,8.83
2019-01-23T20:14:37.048Z,8.63
2019-01-23T20:17:25.968Z,9.73
2019-01-23T20:20:35.706Z,9.37
2019-01-23T20:23:17.124Z,8.30
2019-01-23T20:26:05.995Z,9.43
2019-01-23T20:28:54.936Z,9.30
2019-01-23T20:31:43.765Z,9.10
2019-01-23T20:34:32.673Z,8.83
2019-01-23T20:37:23.503Z,9.33
2019-01-23T20:43:27.900Z,8.57
2019-01-23T20:46:16.716Z,9.50
2019-01-23T20:49:05.617Z,10.57
2019-01-23T20:51:54.568Z,9.33
2019-01-23T20:54:36.378Z,9.43
2019-01-23T20:57:25.201Z,9.17
2019-01-23T21:00:33.720Z,9.37
2019-01-23T21:03:37.237Z,9.60
2019-01-23T21:06:13.249Z,9.07
2019-01-23T21:09:02.287Z,8.97
2019-01-23T21:11:51.186Z,9.03
2019-01-23T21:14:40.043Z,9.17
2019-01-23T21:17:28.920Z,9.10
2019-01-23T21:20:18.031Z,9.90
2019-01-23T21:23:06.951Z,8.90
2019-01-23T21:25:55.841Z,8.60
2019-01-23T21:28:44.746Z,8.63
2019-01-23T21:31:33.619Z,8.67
2019-01-23T21:34:22.451Z,8.83
2019-01-23T21:37:11.327Z,8.97
2019-01-23T21:40:00.230Z,8.90
2019-01-23T21:42:49.101Z,10.50
2019-01-23T21:45:38.037Z,10.93
2019-01-23T21:48:26.878Z,9.50
2019-01-23T21:51:15.727Z,9.60
2019-01-23T21:57:33.037Z,9.30
2019-01-23T22:00:42.279Z,10.27
2019-01-23T22:03:31.143Z,9.40
2019-01-23T22:06:20.082Z,9.73
2019-01-23T22:09:09.243Z,10.20
2019-01-23T22:11:58.080Z,10.27
2019-01-23T22:14:46.920Z,10.20
2019-01-23T22:17:35.778Z,10.50
2019-01-23T22:20:24.722Z,10.23
2019-01-23T22:23:13.629Z,10.23
2019-01-23T22:26:02.512Z,8.67
2019-01-23T22:28:51.340Z,10.13
2019-01-23T22:31:40.158Z,8.77
2019-01-23T22:34:28.657Z,9.33
2019-01-23T22:37:17.561Z,9.57
2019-01-23T22:40:27.258Z,9.93
2019-01-23T22:43:16.108Z,9.80
2019-01-23T22:46:05.099Z,11.57
2019-01-23T22:48:53.940Z,13.03
2019-01-23T22:51:42.788Z,14.23
2019-01-23T22:54:24.933Z,12.33
2019-01-23T22:57:13.729Z,11.87
2019-01-23T23:00:02.722Z,14.00
2019-01-23T23:02:51.708Z,13.50
2019-01-23T23:05:40.670Z,13.77
2019-01-23T23:08:29.677Z,13.33
2019-01-23T23:11:18.475Z,13.43
2019-01-23T23:14:07.433Z,14.33
2019-01-23T23:16:56.284Z,14.53
2019-01-23T23:19:45.152Z,13.43
2019-01-23T23:22:34.000Z,13.23
2019-01-23T23:25:22.789Z,12.47
2019-01-23T23:28:11.713Z,12.50
2019-01-23T23:31:00.630Z,13.90
2019-01-23T23:33:49.534Z,11.70
2019-01-23T23:36:38.463Z,13.23
2019-01-23T23:39:27.350Z,13.10
2019-01-23T23:42:16.179Z,14.70
2019-01-23T23:45:26.031Z,11.90
2019-01-23T23:48:14.879Z,9.33
2019-01-23T23:51:03.693Z,13.67
2019-01-23T23:53:52.543Z,13.13
2019-01-23T23:56:34.369Z,13.30
2019-01-23T23:59:23.240Z,12.93
